sensor_id;sensor_type;location;lat;lon;timestamp;temperature;humidity
31379;DHT22;61664;48.112;11.662;2023-07-30T00:00:49;22.20;91.90
31379;DHT22;61664;48.112;11.662;2023-07-30T00:03:17;22.10;91.00
31379;DHT22;61664;48.112;11.662;2023-07-30T00:05:55;22.10;91.30
31379;DHT22;61664;48.112;11.662;2023-07-30T00:08:23;22.00;88.00
31379;DHT22;61664;48.112;11.662;2023-07-30T00:10:50;21.90;90.60
31379;DHT22;61664;48.112;11.662;2023-07-30T00:13:17;21.80;90.20
31379;DHT22;61664;48.112;11.662;2023-07-30T00:15:47;21.70;90.20
31379;DHT22;61664;48.112;11.662;2023-07-30T00:18:15;21.60;90.00
31379;DHT22;61664;48.112;11.662;2023-07-30T00:20:42;21.60;91.00
31379;DHT22;61664;48.112;11.662;2023-07-30T00:23:10;21.50;91.10
31379;DHT22;61664;48.112;11.662;2023-07-30T00:25:36;21.50;91.40
31379;DHT22;61664;48.112;11.662;2023-07-30T00:28:03;21.40;91.50
31379;DHT22;61664;48.112;11.662;2023-07-30T00:30:30;21.40;91.60
31379;DHT22;61664;48.112;11.662;2023-07-30T00:32:57;21.40;91.80
31379;DHT22;61664;48.112;11.662;2023-07-30T00:35:24;21.40;91.70
31379;DHT22;61664;48.112;11.662;2023-07-30T00:37:51;21.30;91.70
31379;DHT22;61664;48.112;11.662;2023-07-30T00:40:18;21.30;91.70
31379;DHT22;61664;48.112;11.662;2023-07-30T00:42:45;21.30;91.70
31379;DHT22;61664;48.112;11.662;2023-07-30T00:45:12;21.20;91.70
31379;DHT22;61664;48.112;11.662;2023-07-30T00:47:42;21.20;91.90
31379;DHT22;61664;48.112;11.662;2023-07-30T00:50:10;21.20;92.10
31379;DHT22;61664;48.112;11.662;2023-07-30T00:52:40;21.20;92.10
31379;DHT22;61664;48.112;11.662;2023-07-30T00:55:09;21.20;92.40
31379;DHT22;61664;48.112;11.662;2023-07-30T00:57:37;21.20;92.30
31379;DHT22;61664;48.112;11.662;2023-07-30T01:00:04;21.20;92.20
31379;DHT22;61664;48.112;11.662;2023-07-30T01:02:32;21.20;92.30
31379;DHT22;61664;48.112;11.662;2023-07-30T01:05:01;21.20;92.40
31379;DHT22;61664;48.112;11.662;2023-07-30T01:07:30;21.20;92.40
31379;DHT22;61664;48.112;11.662;2023-07-30T01:09:59;21.20;92.50
31379;DHT22;61664;48.112;11.662;2023-07-30T01:12:29;21.20;92.70
31379;DHT22;61664;48.112;11.662;2023-07-30T01:14:58;21.20;92.40
31379;DHT22;61664;48.112;11.662;2023-07-30T01:17:26;21.20;92.70
31379;DHT22;61664;48.112;11.662;2023-07-30T01:19:53;21.20;92.70
31379;DHT22;61664;48.112;11.662;2023-07-30T01:22:23;21.20;92.70
31379;DHT22;61664;48.112;11.662;2023-07-30T01:24:50;21.20;92.60
31379;DHT22;61664;48.112;11.662;2023-07-30T01:27:26;21.20;92.40
31379;DHT22;61664;48.112;11.662;2023-07-30T01:32:31;21.10;90.90
31379;DHT22;61664;48.112;11.662;2023-07-30T01:35:01;21.10;92.10
31379;DHT22;61664;48.112;11.662;2023-07-30T01:37:30;21.10;91.80
31379;DHT22;61664;48.112;11.662;2023-07-30T01:39:58;21.10;92.20
31379;DHT22;61664;48.112;11.662;2023-07-30T01:42:30;21.10;92.30
31379;DHT22;61664;48.112;11.662;2023-07-30T01:44:57;21.00;91.30
31379;DHT22;61664;48.112;11.662;2023-07-30T01:47:24;21.10;90.20
31379;DHT22;61664;48.112;11.662;2023-07-30T01:49:51;21.00;92.30
31379;DHT22;61664;48.112;11.662;2023-07-30T01:52:17;21.00;92.30
31379;DHT22;61664;48.112;11.662;2023-07-30T01:54:44;21.00;92.40
31379;DHT22;61664;48.112;11.662;2023-07-30T01:57:11;21.00;92.40
31379;DHT22;61664;48.112;11.662;2023-07-30T01:59:39;20.90;92.40
31379;DHT22;61664;48.112;11.662;2023-07-30T02:02:06;20.90;92.50
31379;DHT22;61664;48.112;11.662;2023-07-30T02:04:34;20.90;92.50
31379;DHT22;61664;48.112;11.662;2023-07-30T02:07:01;20.90;92.50
31379;DHT22;61664;48.112;11.662;2023-07-30T02:09:28;20.90;92.50
31379;DHT22;61664;48.112;11.662;2023-07-30T02:11:55;20.90;92.50
31379;DHT22;61664;48.112;11.662;2023-07-30T02:14:22;20.90;92.50
31379;DHT22;61664;48.112;11.662;2023-07-30T02:16:49;20.90;92.60
31379;DHT22;61664;48.112;11.662;2023-07-30T02:19:16;20.90;92.80
31379;DHT22;61664;48.112;11.662;2023-07-30T02:21:43;20.90;92.80
31379;DHT22;61664;48.112;11.662;2023-07-30T02:24:09;20.90;92.80
31379;DHT22;61664;48.112;11.662;2023-07-30T02:26:39;20.90;92.90
31379;DHT22;61664;48.112;11.662;2023-07-30T02:29:06;20.90;93.00
31379;DHT22;61664;48.112;11.662;2023-07-30T02:31:32;20.90;93.10
31379;DHT22;61664;48.112;11.662;2023-07-30T02:34:00;20.90;93.10
31379;DHT22;61664;48.112;11.662;2023-07-30T02:36:26;21.00;93.10
31379;DHT22;61664;48.112;11.662;2023-07-30T02:38:53;21.00;93.20
31379;DHT22;61664;48.112;11.662;2023-07-30T02:41:20;21.00;93.20
31379;DHT22;61664;48.112;11.662;2023-07-30T02:43:47;21.10;93.20
31379;DHT22;61664;48.112;11.662;2023-07-30T02:46:14;21.10;93.20
31379;DHT22;61664;48.112;11.662;2023-07-30T02:48:41;21.10;93.10
31379;DHT22;61664;48.112;11.662;2023-07-30T02:51:08;21.10;93.10
31379;DHT22;61664;48.112;11.662;2023-07-30T02:53:35;21.10;93.00
31379;DHT22;61664;48.112;11.662;2023-07-30T02:56:02;21.10;93.00
31379;DHT22;61664;48.112;11.662;2023-07-30T02:58:29;21.10;93.00
31379;DHT22;61664;48.112;11.662;2023-07-30T03:01:04;21.20;92.60
31379;DHT22;61664;48.112;11.662;2023-07-30T03:03:32;21.20;92.50
31379;DHT22;61664;48.112;11.662;2023-07-30T03:05:59;21.10;92.30
31379;DHT22;61664;48.112;11.662;2023-07-30T03:08:26;21.10;92.30
31379;DHT22;61664;48.112;11.662;2023-07-30T03:10:53;21.10;92.20
31379;DHT22;61664;48.112;11.662;2023-07-30T03:13:19;21.10;92.20
31379;DHT22;61664;48.112;11.662;2023-07-30T03:15:48;21.10;92.20
31379;DHT22;61664;48.112;11.662;2023-07-30T03:18:15;21.10;91.90
31379;DHT22;61664;48.112;11.662;2023-07-30T03:20:42;21.10;91.70
31379;DHT22;61664;48.112;11.662;2023-07-30T03:23:08;21.00;91.80
31379;DHT22;61664;48.112;11.662;2023-07-30T03:25:35;21.00;92.00
31379;DHT22;61664;48.112;11.662;2023-07-30T03:28:02;21.00;92.20
31379;DHT22;61664;48.112;11.662;2023-07-30T03:30:29;21.00;92.30
31379;DHT22;61664;48.112;11.662;2023-07-30T03:32:56;21.00;92.20
31379;DHT22;61664;48.112;11.662;2023-07-30T03:35:23;21.00;92.00
31379;DHT22;61664;48.112;11.662;2023-07-30T03:37:51;20.90;91.70
31379;DHT22;61664;48.112;11.662;2023-07-30T03:40:18;20.90;91.60
31379;DHT22;61664;48.112;11.662;2023-07-30T03:42:45;20.90;91.50
31379;DHT22;61664;48.112;11.662;2023-07-30T03:45:11;20.90;91.50
31379;DHT22;61664;48.112;11.662;2023-07-30T03:47:38;20.90;91.50
31379;DHT22;61664;48.112;11.662;2023-07-30T03:50:06;20.90;91.50
31379;DHT22;61664;48.112;11.662;2023-07-30T03:52:33;20.80;91.60
31379;DHT22;61664;48.112;11.662;2023-07-30T03:55:00;20.80;91.70
31379;DHT22;61664;48.112;11.662;2023-07-30T03:57:26;20.80;91.90
31379;DHT22;61664;48.112;11.662;2023-07-30T03:59:53;20.80;92.00
31379;DHT22;61664;48.112;11.662;2023-07-30T04:02:20;20.80;92.10
31379;DHT22;61664;48.112;11.662;2023-07-30T04:04:47;20.80;92.30
31379;DHT22;61664;48.112;11.662;2023-07-30T04:07:16;20.80;92.40
31379;DHT22;61664;48.112;11.662;2023-07-30T04:09:43;20.80;92.40
31379;DHT22;61664;48.112;11.662;2023-07-30T04:12:10;20.80;92.40
31379;DHT22;61664;48.112;11.662;2023-07-30T04:14:37;20.80;92.20
31379;DHT22;61664;48.112;11.662;2023-07-30T04:17:04;20.80;92.00
31379;DHT22;61664;48.112;11.662;2023-07-30T04:19:30;20.80;92.00
31379;DHT22;61664;48.112;11.662;2023-07-30T04:21:57;20.70;91.90
31379;DHT22;61664;48.112;11.662;2023-07-30T04:24:24;20.70;92.00
31379;DHT22;61664;48.112;11.662;2023-07-30T04:26:52;20.70;92.10
31379;DHT22;61664;48.112;11.662;2023-07-30T04:29:19;20.70;92.20
31379;DHT22;61664;48.112;11.662;2023-07-30T04:31:46;20.70;92.30
31379;DHT22;61664;48.112;11.662;2023-07-30T04:34:13;20.60;92.50
31379;DHT22;61664;48.112;11.662;2023-07-30T04:36:40;20.70;92.70
31379;DHT22;61664;48.112;11.662;2023-07-30T04:39:07;20.70;92.80
31379;DHT22;61664;48.112;11.662;2023-07-30T04:41:34;20.70;92.90
31379;DHT22;61664;48.112;11.662;2023-07-30T04:44:03;20.70;93.00
31379;DHT22;61664;48.112;11.662;2023-07-30T04:46:30;20.70;93.10
31379;DHT22;61664;48.112;11.662;2023-07-30T04:49:02;20.70;93.20
31379;DHT22;61664;48.112;11.662;2023-07-30T04:51:31;20.70;92.80
31379;DHT22;61664;48.112;11.662;2023-07-30T04:53:58;20.80;93.40
31379;DHT22;61664;48.112;11.662;2023-07-30T04:56:24;20.80;93.50
31379;DHT22;61664;48.112;11.662;2023-07-30T04:58:54;20.80;93.50
31379;DHT22;61664;48.112;11.662;2023-07-30T05:01:21;20.90;93.40
31379;DHT22;61664;48.112;11.662;2023-07-30T05:03:48;20.90;93.80
31379;DHT22;61664;48.112;11.662;2023-07-30T05:06:15;20.90;93.80
31379;DHT22;61664;48.112;11.662;2023-07-30T05:08:41;20.90;93.70
31379;DHT22;61664;48.112;11.662;2023-07-30T05:11:08;21.00;93.60
31379;DHT22;61664;48.112;11.662;2023-07-30T05:13:35;21.00;93.40
31379;DHT22;61664;48.112;11.662;2023-07-30T05:16:02;21.00;93.30
31379;DHT22;61664;48.112;11.662;2023-07-30T05:18:29;21.10;93.10
31379;DHT22;61664;48.112;11.662;2023-07-30T05:20:56;21.10;93.00
31379;DHT22;61664;48.112;11.662;2023-07-30T05:23:23;21.10;92.90
31379;DHT22;61664;48.112;11.662;2023-07-30T05:25:50;21.10;92.80
31379;DHT22;61664;48.112;11.662;2023-07-30T05:28:17;21.20;92.80
31379;DHT22;61664;48.112;11.662;2023-07-30T05:30:44;21.20;92.90
31379;DHT22;61664;48.112;11.662;2023-07-30T05:33:11;21.20;93.00
31379;DHT22;61664;48.112;11.662;2023-07-30T05:35:38;21.20;93.30
31379;DHT22;61664;48.112;11.662;2023-07-30T05:38:05;21.30;93.40
31379;DHT22;61664;48.112;11.662;2023-07-30T05:40:33;21.30;93.40
31379;DHT22;61664;48.112;11.662;2023-07-30T05:43:05;21.40;93.50
31379;DHT22;61664;48.112;11.662;2023-07-30T05:45:34;21.40;93.60
31379;DHT22;61664;48.112;11.662;2023-07-30T05:48:01;21.50;93.10
31379;DHT22;61664;48.112;11.662;2023-07-30T05:50:28;21.50;93.50
31379;DHT22;61664;48.112;11.662;2023-07-30T05:52:55;21.60;93.60
31379;DHT22;61664;48.112;11.662;2023-07-30T05:55:22;21.60;93.30
31379;DHT22;61664;48.112;11.662;2023-07-30T05:57:49;21.70;93.20
31379;DHT22;61664;48.112;11.662;2023-07-30T06:00:16;21.80;93.30
31379;DHT22;61664;48.112;11.662;2023-07-30T06:02:43;21.80;93.20
31379;DHT22;61664;48.112;11.662;2023-07-30T06:05:10;21.90;92.80
31379;DHT22;61664;48.112;11.662;2023-07-30T06:07:37;21.90;92.80
31379;DHT22;61664;48.112;11.662;2023-07-30T06:10:04;22.00;92.90
31379;DHT22;61664;48.112;11.662;2023-07-30T06:12:32;22.00;92.80
31379;DHT22;61664;48.112;11.662;2023-07-30T06:14:58;22.00;92.70
31379;DHT22;61664;48.112;11.662;2023-07-30T06:17:25;22.10;92.60
31379;DHT22;61664;48.112;11.662;2023-07-30T06:19:52;22.10;92.70
31379;DHT22;61664;48.112;11.662;2023-07-30T06:22:19;22.20;92.60
31379;DHT22;61664;48.112;11.662;2023-07-30T06:24:46;22.20;92.60
31379;DHT22;61664;48.112;11.662;2023-07-30T06:27:13;22.30;92.70
31379;DHT22;61664;48.112;11.662;2023-07-30T06:29:40;22.30;92.30
31379;DHT22;61664;48.112;11.662;2023-07-30T06:32:07;22.40;92.20
31379;DHT22;61664;48.112;11.662;2023-07-30T06:34:34;22.40;92.10
31379;DHT22;61664;48.112;11.662;2023-07-30T06:37:01;22.40;92.10
31379;DHT22;61664;48.112;11.662;2023-07-30T06:39:28;22.50;92.00
31379;DHT22;61664;48.112;11.662;2023-07-30T06:41:55;22.50;92.10
31379;DHT22;61664;48.112;11.662;2023-07-30T06:44:21;22.50;92.00
31379;DHT22;61664;48.112;11.662;2023-07-30T06:46:51;22.60;91.70
31379;DHT22;61664;48.112;11.662;2023-07-30T06:49:18;22.60;91.50
31379;DHT22;61664;48.112;11.662;2023-07-30T06:51:45;22.70;91.50
31379;DHT22;61664;48.112;11.662;2023-07-30T06:54:12;22.70;91.60
31379;DHT22;61664;48.112;11.662;2023-07-30T06:56:39;22.80;91.30
31379;DHT22;61664;48.112;11.662;2023-07-30T06:59:06;22.70;91.40
31379;DHT22;61664;48.112;11.662;2023-07-30T07:01:33;22.80;91.40
31379;DHT22;61664;48.112;11.662;2023-07-30T07:03:59;22.80;91.50
31379;DHT22;61664;48.112;11.662;2023-07-30T07:06:26;22.90;91.60
31379;DHT22;61664;48.112;11.662;2023-07-30T07:08:53;23.00;91.40
31379;DHT22;61664;48.112;11.662;2023-07-30T07:11:20;23.00;91.10
31379;DHT22;61664;48.112;11.662;2023-07-30T07:13:47;23.00;91.20
31379;DHT22;61664;48.112;11.662;2023-07-30T07:16:14;23.10;91.30
31379;DHT22;61664;48.112;11.662;2023-07-30T07:18:41;23.10;91.50
31379;DHT22;61664;48.112;11.662;2023-07-30T07:21:08;23.20;91.40
31379;DHT22;61664;48.112;11.662;2023-07-30T07:23:36;23.20;91.50
31379;DHT22;61664;48.112;11.662;2023-07-30T07:26:03;23.30;91.30
31379;DHT22;61664;48.112;11.662;2023-07-30T07:28:30;23.40;91.30
31379;DHT22;61664;48.112;11.662;2023-07-30T07:30:57;23.50;91.20
31379;DHT22;61664;48.112;11.662;2023-07-30T07:33:24;23.50;91.40
31379;DHT22;61664;48.112;11.662;2023-07-30T07:35:51;23.60;91.50
31379;DHT22;61664;48.112;11.662;2023-07-30T07:38:18;23.70;91.20
31379;DHT22;61664;48.112;11.662;2023-07-30T07:40:45;23.80;91.20
31379;DHT22;61664;48.112;11.662;2023-07-30T07:43:12;23.90;90.60
31379;DHT22;61664;48.112;11.662;2023-07-30T07:45:39;24.00;90.80
31379;DHT22;61664;48.112;11.662;2023-07-30T07:48:06;24.10;90.20
31379;DHT22;61664;48.112;11.662;2023-07-30T07:50:33;24.20;89.80
31379;DHT22;61664;48.112;11.662;2023-07-30T07:53:00;24.20;89.00
31379;DHT22;61664;48.112;11.662;2023-07-30T07:55:27;24.20;88.70
31379;DHT22;61664;48.112;11.662;2023-07-30T07:57:54;24.30;88.20
31379;DHT22;61664;48.112;11.662;2023-07-30T08:00:21;24.30;88.80
31379;DHT22;61664;48.112;11.662;2023-07-30T08:02:48;24.30;89.40
31379;DHT22;61664;48.112;11.662;2023-07-30T08:05:17;24.40;89.20
31379;DHT22;61664;48.112;11.662;2023-07-30T08:07:46;24.50;88.30
31379;DHT22;61664;48.112;11.662;2023-07-30T08:10:13;24.50;87.10
31379;DHT22;61664;48.112;11.662;2023-07-30T08:12:41;24.50;86.30
31379;DHT22;61664;48.112;11.662;2023-07-30T08:15:08;24.50;86.10
31379;DHT22;61664;48.112;11.662;2023-07-30T08:17:35;24.50;86.60
31379;DHT22;61664;48.112;11.662;2023-07-30T08:20:03;24.60;85.70
31379;DHT22;61664;48.112;11.662;2023-07-30T08:22:31;24.60;86.50
31379;DHT22;61664;48.112;11.662;2023-07-30T08:24:57;24.70;87.00
31379;DHT22;61664;48.112;11.662;2023-07-30T08:27:24;24.80;87.20
31379;DHT22;61664;48.112;11.662;2023-07-30T08:29:51;24.90;87.10
31379;DHT22;61664;48.112;11.662;2023-07-30T08:32:18;25.00;85.50
31379;DHT22;61664;48.112;11.662;2023-07-30T08:34:45;25.10;84.10
31379;DHT22;61664;48.112;11.662;2023-07-30T08:37:12;25.10;83.80
31379;DHT22;61664;48.112;11.662;2023-07-30T08:39:39;25.10;83.80
31379;DHT22;61664;48.112;11.662;2023-07-30T08:42:06;25.20;83.80
31379;DHT22;61664;48.112;11.662;2023-07-30T08:44:33;25.40;85.70
31379;DHT22;61664;48.112;11.662;2023-07-30T08:47:00;25.50;85.40
31379;DHT22;61664;48.112;11.662;2023-07-30T08:49:27;25.60;82.60
31379;DHT22;61664;48.112;11.662;2023-07-30T08:51:59;25.70;80.10
31379;DHT22;61664;48.112;11.662;2023-07-30T08:54:31;25.80;80.30
31379;DHT22;61664;48.112;11.662;2023-07-30T08:56:58;26.00;82.50
31379;DHT22;61664;48.112;11.662;2023-07-30T08:59:27;26.30;84.40
31379;DHT22;61664;48.112;11.662;2023-07-30T09:01:58;26.60;83.10
31379;DHT22;61664;48.112;11.662;2023-07-30T09:04:29;27.00;84.50
31379;DHT22;61664;48.112;11.662;2023-07-30T09:07:03;27.50;81.80
31379;DHT22;61664;48.112;11.662;2023-07-30T09:09:35;28.00;83.60
31379;DHT22;61664;48.112;11.662;2023-07-30T09:12:04;28.50;83.10
31379;DHT22;61664;48.112;11.662;2023-07-30T09:14:39;28.90;78.90
31379;DHT22;61664;48.112;11.662;2023-07-30T09:17:06;29.30;78.20
31379;DHT22;61664;48.112;11.662;2023-07-30T09:19:35;29.60;75.80
31379;DHT22;61664;48.112;11.662;2023-07-30T09:22:06;29.80;71.70
31379;DHT22;61664;48.112;11.662;2023-07-30T09:24:33;29.90;70.60
31379;DHT22;61664;48.112;11.662;2023-07-30T09:27:03;29.90;70.70
31379;DHT22;61664;48.112;11.662;2023-07-30T09:29:30;29.90;68.10
31379;DHT22;61664;48.112;11.662;2023-07-30T09:31:57;30.00;69.90
31379;DHT22;61664;48.112;11.662;2023-07-30T09:34:25;30.10;68.40
31379;DHT22;61664;48.112;11.662;2023-07-30T09:36:53;30.30;69.80
31379;DHT22;61664;48.112;11.662;2023-07-30T09:39:22;30.50;68.90
31379;DHT22;61664;48.112;11.662;2023-07-30T09:41:52;30.70;66.70
31379;DHT22;61664;48.112;11.662;2023-07-30T09:44:25;30.90;68.70
31379;DHT22;61664;48.112;11.662;2023-07-30T09:46:53;31.00;66.70
31379;DHT22;61664;48.112;11.662;2023-07-30T09:49:20;31.20;67.70
31379;DHT22;61664;48.112;11.662;2023-07-30T09:51:52;31.40;67.30
31379;DHT22;61664;48.112;11.662;2023-07-30T09:54:19;31.60;66.80
31379;DHT22;61664;48.112;11.662;2023-07-30T09:56:46;31.70;65.20
31379;DHT22;61664;48.112;11.662;2023-07-30T09:59:13;31.80;61.80
31379;DHT22;61664;48.112;11.662;2023-07-30T10:01:48;31.80;61.10
31379;DHT22;61664;48.112;11.662;2023-07-30T10:04:19;31.70;58.40
31379;DHT22;61664;48.112;11.662;2023-07-30T10:07:08;31.60;63.90
31379;DHT22;61664;48.112;11.662;2023-07-30T10:09:43;31.40;63.30
31379;DHT22;61664;48.112;11.662;2023-07-30T10:12:16;31.30;62.60
31379;DHT22;61664;48.112;11.662;2023-07-30T10:14:47;31.30;62.30
31379;DHT22;61664;48.112;11.662;2023-07-30T10:17:16;31.30;61.10
31379;DHT22;61664;48.112;11.662;2023-07-30T10:19:46;31.20;57.90
31379;DHT22;61664;48.112;11.662;2023-07-30T10:24:59;30.80;59.90
31379;DHT22;61664;48.112;11.662;2023-07-30T10:27:38;30.40;59.80
31379;DHT22;61664;48.112;11.662;2023-07-30T10:30:18;30.00;57.20
31379;DHT22;61664;48.112;11.662;2023-07-30T10:35:39;28.90;56.50
31379;DHT22;61664;48.112;11.662;2023-07-30T10:38:21;28.20;57.50
31379;DHT22;61664;48.112;11.662;2023-07-30T10:43:29;27.20;60.70
31379;DHT22;61664;48.112;11.662;2023-07-30T10:46:07;26.90;63.30
31379;DHT22;61664;48.112;11.662;2023-07-30T10:48:37;26.90;64.80
31379;DHT22;61664;48.112;11.662;2023-07-30T10:51:08;27.00;65.10
31379;DHT22;61664;48.112;11.662;2023-07-30T10:53:36;27.10;65.30
31379;DHT22;61664;48.112;11.662;2023-07-30T10:56:05;27.30;66.20
31379;DHT22;61664;48.112;11.662;2023-07-30T10:58:35;27.40;65.10
31379;DHT22;61664;48.112;11.662;2023-07-30T11:01:04;27.60;64.60
31379;DHT22;61664;48.112;11.662;2023-07-30T11:03:34;27.70;63.40
31379;DHT22;61664;48.112;11.662;2023-07-30T11:06:03;27.90;65.20
31379;DHT22;61664;48.112;11.662;2023-07-30T11:08:41;28.00;64.60
31379;DHT22;61664;48.112;11.662;2023-07-30T11:11:10;28.20;63.20
31379;DHT22;61664;48.112;11.662;2023-07-30T11:13:39;28.30;62.90
31379;DHT22;61664;48.112;11.662;2023-07-30T11:16:08;28.40;60.50
31379;DHT22;61664;48.112;11.662;2023-07-30T11:18:37;28.50;64.30
31379;DHT22;61664;48.112;11.662;2023-07-30T11:21:09;28.50;60.40
31379;DHT22;61664;48.112;11.662;2023-07-30T11:23:40;28.50;59.00
31379;DHT22;61664;48.112;11.662;2023-07-30T11:26:13;28.50;61.20
31379;DHT22;61664;48.112;11.662;2023-07-30T11:28:46;28.40;61.40
31379;DHT22;61664;48.112;11.662;2023-07-30T11:31:18;28.50;61.90
31379;DHT22;61664;48.112;11.662;2023-07-30T11:33:48;28.50;59.10
31379;DHT22;61664;48.112;11.662;2023-07-30T11:36:20;28.40;59.00
31379;DHT22;61664;48.112;11.662;2023-07-30T11:38:48;28.40;57.70
31379;DHT22;61664;48.112;11.662;2023-07-30T11:41:16;28.40;60.00
31379;DHT22;61664;48.112;11.662;2023-07-30T11:43:44;28.40;58.10
31379;DHT22;61664;48.112;11.662;2023-07-30T11:46:18;28.40;57.20
31379;DHT22;61664;48.112;11.662;2023-07-30T11:48:53;28.30;57.60
31379;DHT22;61664;48.112;11.662;2023-07-30T11:51:37;28.10;55.90
31379;DHT22;61664;48.112;11.662;2023-07-30T11:54:05;28.20;58.30
31379;DHT22;61664;48.112;11.662;2023-07-30T11:56:32;28.20;58.00
31379;DHT22;61664;48.112;11.662;2023-07-30T11:59:07;28.10;58.60
31379;DHT22;61664;48.112;11.662;2023-07-30T12:01:35;28.00;56.10
31379;DHT22;61664;48.112;11.662;2023-07-30T12:04:05;28.00;57.90
31379;DHT22;61664;48.112;11.662;2023-07-30T12:06:49;27.90;60.40
31379;DHT22;61664;48.112;11.662;2023-07-30T12:09:22;27.90;58.50
31379;DHT22;61664;48.112;11.662;2023-07-30T12:17:19;27.80;60.20
31379;DHT22;61664;48.112;11.662;2023-07-30T12:19:46;27.80;63.60
31379;DHT22;61664;48.112;11.662;2023-07-30T12:22:13;27.90;63.20
31379;DHT22;61664;48.112;11.662;2023-07-30T12:24:41;27.90;62.60
31379;DHT22;61664;48.112;11.662;2023-07-30T12:27:08;27.80;62.60
31379;DHT22;61664;48.112;11.662;2023-07-30T12:29:35;27.80;62.90
31379;DHT22;61664;48.112;11.662;2023-07-30T12:32:02;27.70;62.80
31379;DHT22;61664;48.112;11.662;2023-07-30T12:34:30;27.80;63.00
31379;DHT22;61664;48.112;11.662;2023-07-30T12:36:57;27.70;63.40
31379;DHT22;61664;48.112;11.662;2023-07-30T12:39:25;27.80;63.80
31379;DHT22;61664;48.112;11.662;2023-07-30T12:41:52;27.80;64.30
31379;DHT22;61664;48.112;11.662;2023-07-30T12:44:19;28.00;64.60
31379;DHT22;61664;48.112;11.662;2023-07-30T12:46:45;28.10;65.30
31379;DHT22;61664;48.112;11.662;2023-07-30T12:49:12;28.20;65.10
31379;DHT22;61664;48.112;11.662;2023-07-30T12:51:39;28.40;65.00
31379;DHT22;61664;48.112;11.662;2023-07-30T12:54:07;28.40;64.60
31379;DHT22;61664;48.112;11.662;2023-07-30T12:56:34;28.50;64.20
31379;DHT22;61664;48.112;11.662;2023-07-30T12:59:03;28.60;64.10
31379;DHT22;61664;48.112;11.662;2023-07-30T13:01:30;28.60;64.40
31379;DHT22;61664;48.112;11.662;2023-07-30T13:03:57;28.70;64.40
31379;DHT22;61664;48.112;11.662;2023-07-30T13:06:24;28.70;64.60
31379;DHT22;61664;48.112;11.662;2023-07-30T13:08:51;28.70;64.20
31379;DHT22;61664;48.112;11.662;2023-07-30T13:11:18;28.70;64.30
31379;DHT22;61664;48.112;11.662;2023-07-30T13:13:45;28.70;64.30
31379;DHT22;61664;48.112;11.662;2023-07-30T13:16:12;28.70;64.00
31379;DHT22;61664;48.112;11.662;2023-07-30T13:18:39;28.70;63.80
31379;DHT22;61664;48.112;11.662;2023-07-30T13:21:06;28.70;64.20
31379;DHT22;61664;48.112;11.662;2023-07-30T13:23:33;28.70;64.20
31379;DHT22;61664;48.112;11.662;2023-07-30T13:26:00;28.70;64.50
31379;DHT22;61664;48.112;11.662;2023-07-30T13:28:28;28.80;64.60
31379;DHT22;61664;48.112;11.662;2023-07-30T13:30:55;28.90;64.90
31379;DHT22;61664;48.112;11.662;2023-07-30T13:33:23;29.00;65.10
31379;DHT22;61664;48.112;11.662;2023-07-30T13:35:50;29.10;65.40
31379;DHT22;61664;48.112;11.662;2023-07-30T13:38:17;29.20;64.90
31379;DHT22;61664;48.112;11.662;2023-07-30T13:40:47;29.30;64.30
31379;DHT22;61664;48.112;11.662;2023-07-30T13:43:13;29.30;64.20
31379;DHT22;61664;48.112;11.662;2023-07-30T13:45:40;29.20;63.30
31379;DHT22;61664;48.112;11.662;2023-07-30T13:48:07;29.10;62.80
31379;DHT22;61664;48.112;11.662;2023-07-30T13:50:36;28.90;62.60
31379;DHT22;61664;48.112;11.662;2023-07-30T13:53:03;28.80;62.30
31379;DHT22;61664;48.112;11.662;2023-07-30T13:55:29;28.50;62.00
31379;DHT22;61664;48.112;11.662;2023-07-30T13:57:56;28.30;62.10
31379;DHT22;61664;48.112;11.662;2023-07-30T14:00:23;27.90;63.70
31379;DHT22;61664;48.112;11.662;2023-07-30T14:02:50;27.30;66.60
31379;DHT22;61664;48.112;11.662;2023-07-30T14:05:18;26.60;69.20
31379;DHT22;61664;48.112;11.662;2023-07-30T14:07:45;26.00;71.90
31379;DHT22;61664;48.112;11.662;2023-07-30T14:10:12;25.60;74.80
31379;DHT22;61664;48.112;11.662;2023-07-30T14:12:39;25.20;79.40
31379;DHT22;61664;48.112;11.662;2023-07-30T14:15:06;25.10;87.90
31379;DHT22;61664;48.112;11.662;2023-07-30T14:17:34;25.30;93.70
31379;DHT22;61664;48.112;11.662;2023-07-30T14:20:01;25.50;95.90
31379;DHT22;61664;48.112;11.662;2023-07-30T14:22:28;25.80;98.20
31379;DHT22;61664;48.112;11.662;2023-07-30T14:24:55;26.20;99.30
31379;DHT22;61664;48.112;11.662;2023-07-30T14:27:22;26.70;99.40
31379;DHT22;61664;48.112;11.662;2023-07-30T14:29:50;27.20;98.70
31379;DHT22;61664;48.112;11.662;2023-07-30T14:32:21;27.60;96.60
31379;DHT22;61664;48.112;11.662;2023-07-30T14:34:48;28.10;95.90
31379;DHT22;61664;48.112;11.662;2023-07-30T14:37:15;28.50;93.80
31379;DHT22;61664;48.112;11.662;2023-07-30T14:39:42;28.90;94.00
31379;DHT22;61664;48.112;11.662;2023-07-30T14:42:09;29.30;93.10
31379;DHT22;61664;48.112;11.662;2023-07-30T14:44:35;29.70;92.00
31379;DHT22;61664;48.112;11.662;2023-07-30T14:47:02;30.20;90.60
31379;DHT22;61664;48.112;11.662;2023-07-30T14:49:31;30.60;90.30
31379;DHT22;61664;48.112;11.662;2023-07-30T14:51:58;30.90;87.10
31379;DHT22;61664;48.112;11.662;2023-07-30T14:54:25;31.20;83.80
31379;DHT22;61664;48.112;11.662;2023-07-30T14:56:51;31.50;82.60
31379;DHT22;61664;48.112;11.662;2023-07-30T14:59:18;31.60;83.40
31379;DHT22;61664;48.112;11.662;2023-07-30T15:01:45;31.80;82.40
31379;DHT22;61664;48.112;11.662;2023-07-30T15:04:12;31.90;82.30
31379;DHT22;61664;48.112;11.662;2023-07-30T15:06:39;32.00;77.60
31379;DHT22;61664;48.112;11.662;2023-07-30T15:09:06;31.90;75.00
31379;DHT22;61664;48.112;11.662;2023-07-30T15:11:33;31.60;73.30
31379;DHT22;61664;48.112;11.662;2023-07-30T15:14:00;31.40;73.50
31379;DHT22;61664;48.112;11.662;2023-07-30T15:16:27;31.00;73.00
31379;DHT22;61664;48.112;11.662;2023-07-30T15:18:54;30.60;74.00
31379;DHT22;61664;48.112;11.662;2023-07-30T15:21:24;30.50;79.20
31379;DHT22;61664;48.112;11.662;2023-07-30T15:23:52;30.50;84.40
31379;DHT22;61664;48.112;11.662;2023-07-30T15:26:19;30.60;85.90
31379;DHT22;61664;48.112;11.662;2023-07-30T15:28:47;30.90;88.10
31379;DHT22;61664;48.112;11.662;2023-07-30T15:31:14;31.20;84.60
31379;DHT22;61664;48.112;11.662;2023-07-30T15:33:41;31.40;80.10
31379;DHT22;61664;48.112;11.662;2023-07-30T15:36:08;31.60;82.10